sensor_id;sensor_type;location;lat;lon;timestamp;pressure;altitude;pressure_sealevel;temperature;humidity
77360;BME280;66426;51.454;7.266;2023-01-15T00:00:12;98473.09;;;6.06;nan
77360;BME280;66426;51.454;7.266;2023-01-15T00:01:19;98475.69;;;6.08;nan
77360;BME280;66426;51.454;7.266;2023-01-15T00:02:20;98476.31;;;5.97;nan
77360;BME280;66426;51.454;7.266;2023-01-15T00:03:21;98483.56;;;5.95;nan
77360;BME280;66426;51.454;7.266;2023-01-15T00:04:22;98485.78;;;6.02;nan
77360;BME280;66426;51.454;7.266;2023-01-15T00:05:23;98484.81;;;6.03;nan
77360;BME280;66426;51.454;7.266;2023-01-15T00:06:25;98486.72;;;6.01;nan
77360;BME280;66426;51.454;7.266;2023-01-15T00:07:28;98487.41;;;6.05;nan
77360;BME280;66426;51.454;7.266;2023-01-15T00:08:29;98494.25;;;5.95;nan
77360;BME280;66426;51.454;7.266;2023-01-15T00:09:30;98502.22;;;6.11;nan
77360;BME280;66426;51.454;7.266;2023-01-15T00:10:31;98499.94;;;6.04;nan
77360;BME280;66426;51.454;7.266;2023-01-15T00:11:33;98503.22;;;5.94;nan
77360;BME280;66426;51.454;7.266;2023-01-15T00:12:34;98494.56;;;5.89;nan
77360;BME280;66426;51.454;7.266;2023-01-15T00:13:35;98500.38;;;5.97;nan
77360;BME280;66426;51.454;7.266;2023-01-15T00:14:36;98498.88;;;5.91;nan
77360;BME280;66426;51.454;7.266;2023-01-15T00:15:37;98488.09;;;5.93;nan
77360;BME280;66426;51.454;7.266;2023-01-15T00:16:38;98485.44;;;5.93;nan
77360;BME280;66426;51.454;7.266;2023-01-15T00:17:42;98484.25;;;5.98;nan
77360;BME280;66426;51.454;7.266;2023-01-15T00:18:48;98488.28;;;5.90;nan
77360;BME280;66426;51.454;7.266;2023-01-15T00:19:50;98477.63;;;5.74;nan
77360;BME280;66426;51.454;7.266;2023-01-15T00:20:57;98482.94;;;5.90;nan
77360;BME280;66426;51.454;7.266;2023-01-15T00:21:58;98481.91;;;5.92;nan
77360;BME280;66426;51.454;7.266;2023-01-15T00:23:01;98495.53;;;5.88;nan
77360;BME280;66426;51.454;7.266;2023-01-15T00:24:02;98489.84;;;5.94;nan
77360;BME280;66426;51.454;7.266;2023-01-15T00:25:22;98499.50;;;5.96;nan
77360;BME280;66426;51.454;7.266;2023-01-15T00:26:42;98496.13;;;5.93;nan
77360;BME280;66426;51.454;7.266;2023-01-15T00:28:01;98492.47;;;5.79;nan
77360;BME280;66426;51.454;7.266;2023-01-15T00:29:03;98496.19;;;5.91;nan
77360;BME280;66426;51.454;7.266;2023-01-15T00:30:06;98500.88;;;5.88;nan
77360;BME280;66426;51.454;7.266;2023-01-15T00:31:07;98498.75;;;5.94;nan
77360;BME280;66426;51.454;7.266;2023-01-15T00:32:08;98503.91;;;5.97;nan
77360;BME280;66426;51.454;7.266;2023-01-15T00:33:09;98504.41;;;5.88;nan
77360;BME280;66426;51.454;7.266;2023-01-15T00:34:10;98501.47;;;5.93;nan
77360;BME280;66426;51.454;7.266;2023-01-15T00:35:12;98490.84;;;5.91;nan
77360;BME280;66426;51.454;7.266;2023-01-15T00:36:14;98500.09;;;5.86;nan
77360;BME280;66426;51.454;7.266;2023-01-15T00:37:15;98499.75;;;5.92;nan
77360;BME280;66426;51.454;7.266;2023-01-15T00:38:17;98502.25;;;5.79;nan
77360;BME280;66426;51.454;7.266;2023-01-15T00:39:19;98513.91;;;5.78;nan
77360;BME280;66426;51.454;7.266;2023-01-15T00:40:20;98510.47;;;5.76;nan
77360;BME280;66426;51.454;7.266;2023-01-15T00:41:21;98512.69;;;5.83;nan
77360;BME280;66426;51.454;7.266;2023-01-15T00:42:23;98517.50;;;5.93;nan
77360;BME280;66426;51.454;7.266;2023-01-15T00:43:24;98527.19;;;5.95;nan
77360;BME280;66426;51.454;7.266;2023-01-15T00:44:25;98517.97;;;5.85;nan
77360;BME280;66426;51.454;7.266;2023-01-15T00:45:26;98510.00;;;5.83;nan
77360;BME280;66426;51.454;7.266;2023-01-15T00:46:27;98500.53;;;5.78;nan
77360;BME280;66426;51.454;7.266;2023-01-15T00:47:28;98497.34;;;5.87;nan
77360;BME280;66426;51.454;7.266;2023-01-15T00:48:29;98505.81;;;5.95;nan
77360;BME280;66426;51.454;7.266;2023-01-15T00:49:30;98506.31;;;5.86;nan
77360;BME280;66426;51.454;7.266;2023-01-15T00:50:31;98505.72;;;5.81;nan
77360;BME280;66426;51.454;7.266;2023-01-15T00:51:32;98502.28;;;5.95;nan
77360;BME280;66426;51.454;7.266;2023-01-15T00:52:34;98503.47;;;5.89;nan
77360;BME280;66426;51.454;7.266;2023-01-15T00:53:36;98492.88;;;5.88;nan
77360;BME280;66426;51.454;7.266;2023-01-15T00:54:37;98480.09;;;5.93;nan
77360;BME280;66426;51.454;7.266;2023-01-15T00:55:38;98480.91;;;5.95;nan
77360;BME280;66426;51.454;7.266;2023-01-15T00:56:39;98475.00;;;5.88;nan
77360;BME280;66426;51.454;7.266;2023-01-15T00:57:41;98480.47;;;5.87;nan
77360;BME280;66426;51.454;7.266;2023-01-15T00:58:42;98475.13;;;5.87;nan
77360;BME280;66426;51.454;7.266;2023-01-15T00:59:43;98486.41;;;5.92;nan
77360;BME280;66426;51.454;7.266;2023-01-15T01:00:44;98487.75;;;5.99;nan
77360;BME280;66426;51.454;7.266;2023-01-15T01:01:45;98494.31;;;5.93;nan
77360;BME280;66426;51.454;7.266;2023-01-15T01:02:46;98484.50;;;5.94;nan
77360;BME280;66426;51.454;7.266;2023-01-15T01:03:47;98476.75;;;5.89;nan
77360;BME280;66426;51.454;7.266;2023-01-15T01:04:50;98471.41;;;5.89;nan
77360;BME280;66426;51.454;7.266;2023-01-15T01:05:51;98473.56;;;5.82;nan
77360;BME280;66426;51.454;7.266;2023-01-15T01:06:52;98469.34;;;5.78;nan
77360;BME280;66426;51.454;7.266;2023-01-15T01:07:53;98472.16;;;5.91;nan
77360;BME280;66426;51.454;7.266;2023-01-15T01:08:56;98473.81;;;5.94;nan
77360;BME280;66426;51.454;7.266;2023-01-15T01:09:57;98474.34;;;5.84;nan
77360;BME280;66426;51.454;7.266;2023-01-15T01:11:02;98466.31;;;6.00;nan
77360;BME280;66426;51.454;7.266;2023-01-15T01:12:04;98467.56;;;5.93;nan
77360;BME280;66426;51.454;7.266;2023-01-15T01:13:05;98463.13;;;5.78;nan
77360;BME280;66426;51.454;7.266;2023-01-15T01:14:06;98454.84;;;5.82;nan
77360;BME280;66426;51.454;7.266;2023-01-15T01:15:08;98456.56;;;5.99;nan
77360;BME280;66426;51.454;7.266;2023-01-15T01:16:25;98460.72;;;5.89;nan
77360;BME280;66426;51.454;7.266;2023-01-15T01:17:26;98461.50;;;5.75;nan
77360;BME280;66426;51.454;7.266;2023-01-15T01:18:27;98457.00;;;5.92;nan
77360;BME280;66426;51.454;7.266;2023-01-15T01:19:28;98456.84;;;5.95;nan
77360;BME280;66426;51.454;7.266;2023-01-15T01:20:30;98448.94;;;6.08;nan
77360;BME280;66426;51.454;7.266;2023-01-15T01:21:32;98439.50;;;5.86;nan
77360;BME280;66426;51.454;7.266;2023-01-15T01:22:33;98447.66;;;5.99;nan
77360;BME280;66426;51.454;7.266;2023-01-15T01:23:34;98443.47;;;5.79;nan
77360;BME280;66426;51.454;7.266;2023-01-15T01:24:36;98445.03;;;5.83;nan
77360;BME280;66426;51.454;7.266;2023-01-15T01:25:37;98430.44;;;6.04;nan
77360;BME280;66426;51.454;7.266;2023-01-15T01:26:38;98440.19;;;5.90;nan
77360;BME280;66426;51.454;7.266;2023-01-15T01:27:42;98446.03;;;5.96;nan
77360;BME280;66426;51.454;7.266;2023-01-15T01:28:48;98452.41;;;6.10;nan
77360;BME280;66426;51.454;7.266;2023-01-15T01:29:49;98467.41;;;6.12;nan
77360;BME280;66426;51.454;7.266;2023-01-15T01:30:50;98476.53;;;6.08;nan
77360;BME280;66426;51.454;7.266;2023-01-15T01:31:51;98485.00;;;6.00;nan
77360;BME280;66426;51.454;7.266;2023-01-15T01:32:52;98490.28;;;6.02;nan
77360;BME280;66426;51.454;7.266;2023-01-15T01:33:56;98490.34;;;6.00;nan
77360;BME280;66426;51.454;7.266;2023-01-15T01:34:58;98486.66;;;6.03;nan
77360;BME280;66426;51.454;7.266;2023-01-15T01:35:59;98496.22;;;6.07;nan
77360;BME280;66426;51.454;7.266;2023-01-15T01:37:00;98491.91;;;6.04;nan
77360;BME280;66426;51.454;7.266;2023-01-15T01:38:01;98496.66;;;5.99;nan
77360;BME280;66426;51.454;7.266;2023-01-15T01:39:03;98494.66;;;6.03;nan
77360;BME280;66426;51.454;7.266;2023-01-15T01:40:08;98493.53;;;5.91;nan
77360;BME280;66426;51.454;7.266;2023-01-15T01:41:09;98496.56;;;6.01;nan
77360;BME280;66426;51.454;7.266;2023-01-15T01:42:11;98492.59;;;6.08;nan
77360;BME280;66426;51.454;7.266;2023-01-15T01:43:18;98486.25;;;5.95;nan
77360;BME280;66426;51.454;7.266;2023-01-15T01:44:57;98487.75;;;5.99;nan
77360;BME280;66426;51.454;7.266;2023-01-15T01:46:00;98488.72;;;5.98;nan
77360;BME280;66426;51.454;7.266;2023-01-15T01:47:03;98493.13;;;5.99;nan
77360;BME280;66426;51.454;7.266;2023-01-15T01:48:05;98491.28;;;6.15;nan
77360;BME280;66426;51.454;7.266;2023-01-15T01:49:08;98481.69;;;5.97;nan
77360;BME280;66426;51.454;7.266;2023-01-15T01:50:12;98485.38;;;5.94;nan
77360;BME280;66426;51.454;7.266;2023-01-15T01:51:13;98486.13;;;5.96;nan
77360;BME280;66426;51.454;7.266;2023-01-15T01:52:17;98489.69;;;5.97;nan
77360;BME280;66426;51.454;7.266;2023-01-15T01:53:22;98490.72;;;5.94;nan
77360;BME280;66426;51.454;7.266;2023-01-15T01:54:25;98485.78;;;6.02;nan
77360;BME280;66426;51.454;7.266;2023-01-15T01:55:32;98489.13;;;6.06;nan
77360;BME280;66426;51.454;7.266;2023-01-15T01:56:35;98484.94;;;6.02;nan
77360;BME280;66426;51.454;7.266;2023-01-15T01:57:37;98490.78;;;5.93;nan
77360;BME280;66426;51.454;7.266;2023-01-15T01:58:39;98487.88;;;5.97;nan
77360;BME280;66426;51.454;7.266;2023-01-15T01:59:41;98488.66;;;5.99;nan
77360;BME280;66426;51.454;7.266;2023-01-15T02:00:46;98481.97;;;5.91;nan
77360;BME280;66426;51.454;7.266;2023-01-15T02:01:48;98485.69;;;6.04;nan
77360;BME280;66426;51.454;7.266;2023-01-15T02:02:50;98467.75;;;5.90;nan
77360;BME280;66426;51.454;7.266;2023-01-15T02:03:52;98479.47;;;6.03;nan
77360;BME280;66426;51.454;7.266;2023-01-15T02:04:53;98486.13;;;5.96;nan
77360;BME280;66426;51.454;7.266;2023-01-15T02:05:57;98486.41;;;5.92;nan
77360;BME280;66426;51.454;7.266;2023-01-15T02:07:00;98484.25;;;5.98;nan
77360;BME280;66426;51.454;7.266;2023-01-15T02:08:02;98502.78;;;5.86;nan
77360;BME280;66426;51.454;7.266;2023-01-15T02:09:03;98485.69;;;5.88;nan
77360;BME280;66426;51.454;7.266;2023-01-15T02:10:05;98493.63;;;5.90;nan
77360;BME280;66426;51.454;7.266;2023-01-15T02:11:16;98492.78;;;5.73;nan
77360;BME280;66426;51.454;7.266;2023-01-15T02:12:22;98482.09;;;5.73;nan
77360;BME280;66426;51.454;7.266;2023-01-15T02:13:30;98480.03;;;5.78;nan
77360;BME280;66426;51.454;7.266;2023-01-15T02:14:38;98486.81;;;5.84;nan
77360;BME280;66426;51.454;7.266;2023-01-15T02:15:44;98484.91;;;5.86;nan
77360;BME280;66426;51.454;7.266;2023-01-15T02:16:51;98487.50;;;5.88;nan
77360;BME280;66426;51.454;7.266;2023-01-15T02:18:01;98485.63;;;5.90;nan
77360;BME280;66426;51.454;7.266;2023-01-15T02:19:21;98498.22;;;5.88;nan
77360;BME280;66426;51.454;7.266;2023-01-15T02:20:29;98499.66;;;5.93;nan
77360;BME280;66426;51.454;7.266;2023-01-15T02:21:41;98491.91;;;6.04;nan
77360;BME280;66426;51.454;7.266;2023-01-15T02:22:57;98487.09;;;5.79;nan
77360;BME280;66426;51.454;7.266;2023-01-15T02:24:06;98489.94;;;5.76;nan
77360;BME280;66426;51.454;7.266;2023-01-15T02:25:13;98489.16;;;5.90;nan
77360;BME280;66426;51.454;7.266;2023-01-15T02:26:40;98479.22;;;5.92;nan
77360;BME280;66426;51.454;7.266;2023-01-15T02:27:46;98485.28;;;5.96;nan
77360;BME280;66426;51.454;7.266;2023-01-15T02:28:51;98489.34;;;5.87;nan
77360;BME280;66426;51.454;7.266;2023-01-15T02:29:58;98484.06;;;5.86;nan
77360;BME280;66426;51.454;7.266;2023-01-15T02:31:08;98484.25;;;5.82;nan
77360;BME280;66426;51.454;7.266;2023-01-15T02:32:15;98474.06;;;5.89;nan
77360;BME280;66426;51.454;7.266;2023-01-15T02:33:21;98475.47;;;5.80;nan
77360;BME280;66426;51.454;7.266;2023-01-15T02:34:27;98475.28;;;5.83;nan
77360;BME280;66426;51.454;7.266;2023-01-15T02:35:35;98473.81;;;5.94;nan
77360;BME280;66426;51.454;7.266;2023-01-15T02:36:40;98482.25;;;5.86;nan
77360;BME280;66426;51.454;7.266;2023-01-15T02:37:47;98481.81;;;5.94;nan
77360;BME280;66426;51.454;7.266;2023-01-15T02:38:52;98476.22;;;5.98;nan
77360;BME280;66426;51.454;7.266;2023-01-15T02:39:57;98484.25;;;5.98;nan
77360;BME280;66426;51.454;7.266;2023-01-15T02:41:01;98478.13;;;5.96;nan
77360;BME280;66426;51.454;7.266;2023-01-15T02:42:07;98480.63;;;5.83;nan
77360;BME280;66426;51.454;7.266;2023-01-15T02:43:11;98486.47;;;5.90;nan
77360;BME280;66426;51.454;7.266;2023-01-15T02:44:15;98476.81;;;5.88;nan
77360;BME280;66426;51.454;7.266;2023-01-15T02:45:20;98493.41;;;5.94;nan
77360;BME280;66426;51.454;7.266;2023-01-15T02:46:27;98488.06;;;5.94;nan
77360;BME280;66426;51.454;7.266;2023-01-15T02:47:33;98477.47;;;5.77;nan
77360;BME280;66426;51.454;7.266;2023-01-15T02:48:37;98483.22;;;5.85;nan
77360;BME280;66426;51.454;7.266;2023-01-15T02:49:40;98483.56;;;5.79;nan
77360;BME280;66426;51.454;7.266;2023-01-15T02:50:44;98482.44;;;5.83;nan
77360;BME280;66426;51.454;7.266;2023-01-15T02:51:50;98475.28;;;5.83;nan
77360;BME280;66426;51.454;7.266;2023-01-15T02:52:56;98474.94;;;5.90;nan
77360;BME280;66426;51.454;7.266;2023-01-15T02:54:02;98469.06;;;5.99;nan
77360;BME280;66426;51.454;7.266;2023-01-15T02:55:07;98459.66;;;5.92;nan
77360;BME280;66426;51.454;7.266;2023-01-15T02:56:12;98455.69;;;5.99;nan
77360;BME280;66426;51.454;7.266;2023-01-15T02:57:17;98454.84;;;5.98;nan
77360;BME280;66426;51.454;7.266;2023-01-15T02:58:23;98448.00;;;5.93;nan
77360;BME280;66426;51.454;7.266;2023-01-15T02:59:28;98443.47;;;5.95;nan
77360;BME280;66426;51.454;7.266;2023-01-15T03:00:36;98433.75;;;5.78;nan
77360;BME280;66426;51.454;7.266;2023-01-15T03:01:42;98427.63;;;5.76;nan
77360;BME280;66426;51.454;7.266;2023-01-15T03:02:47;98425.97;;;5.89;nan
77360;BME280;66426;51.454;7.266;2023-01-15T03:04:04;98432.97;;;5.76;nan
77360;BME280;66426;51.454;7.266;2023-01-15T03:05:08;98443.66;;;5.76;nan
77360;BME280;66426;51.454;7.266;2023-01-15T03:06:15;98444.84;;;5.86;nan
77360;BME280;66426;51.454;7.266;2023-01-15T03:07:22;98448.00;;;5.93;nan
77360;BME280;66426;51.454;7.266;2023-01-15T03:08:25;98452.84;;;5.86;nan
77360;BME280;66426;51.454;7.266;2023-01-15T03:09:26;98454.84;;;5.82;nan
77360;BME280;66426;51.454;7.266;2023-01-15T03:10:33;98465.72;;;5.95;nan
77360;BME280;66426;51.454;7.266;2023-01-15T03:11:40;98464.44;;;5.87;nan
77360;BME280;66426;51.454;7.266;2023-01-15T03:12:48;98456.84;;;5.95;nan
77360;BME280;66426;51.454;7.266;2023-01-15T03:14:03;98464.00;;;5.94;nan
77360;BME280;66426;51.454;7.266;2023-01-15T03:15:07;98465.81;;;5.78;nan
77360;BME280;66426;51.454;7.266;2023-01-15T03:16:15;98465.00;;;5.92;nan
77360;BME280;66426;51.454;7.266;2023-01-15T03:17:42;98463.19;;;5.92;nan
77360;BME280;66426;51.454;7.266;2023-01-15T03:18:51;98457.25;;;5.87;nan
77360;BME280;66426;51.454;7.266;2023-01-15T03:19:57;98461.75;;;5.87;nan
77360;BME280;66426;51.454;7.266;2023-01-15T03:21:05;98463.13;;;5.94;nan
77360;BME280;66426;51.454;7.266;2023-01-15T03:22:11;98467.25;;;5.83;nan
77360;BME280;66426;51.454;7.266;2023-01-15T03:23:17;98460.78;;;5.88;nan
77360;BME280;66426;51.454;7.266;2023-01-15T03:24:24;98466.06;;;5.89;nan
77360;BME280;66426;51.454;7.266;2023-01-15T03:25:30;98460.09;;;5.84;nan
77360;BME280;66426;51.454;7.266;2023-01-15T03:26:34;98456.03;;;5.93;nan
77360;BME280;66426;51.454;7.266;2023-01-15T03:27:35;98460.59;;;5.91;nan
77360;BME280;66426;51.454;7.266;2023-01-15T03:28:39;98460.59;;;5.91;nan
77360;BME280;66426;51.454;7.266;2023-01-15T03:29:42;98470.22;;;5.95;nan
77360;BME280;66426;51.454;7.266;2023-01-15T03:30:44;98459.50;;;5.95;nan
77360;BME280;66426;51.454;7.266;2023-01-15T03:31:46;98457.34;;;5.86;nan
77360;BME280;66426;51.454;7.266;2023-01-15T03:32:49;98449.13;;;5.89;nan
77360;BME280;66426;51.454;7.266;2023-01-15T03:33:50;98454.75;;;5.84;nan
77360;BME280;66426;51.454;7.266;2023-01-15T03:34:53;98451.22;;;5.83;nan
77360;BME280;66426;51.454;7.266;2023-01-15T03:35:57;98453.34;;;5.93;nan
77360;BME280;66426;51.454;7.266;2023-01-15T03:36:58;98451.66;;;5.76;nan
77360;BME280;66426;51.454;7.266;2023-01-15T03:38:00;98454.59;;;5.87;nan
77360;BME280;66426;51.454;7.266;2023-01-15T03:39:01;98453.31;;;5.78;nan
77360;BME280;66426;51.454;7.266;2023-01-15T03:40:03;98457.88;;;5.76;nan
77360;BME280;66426;51.454;7.266;2023-01-15T03:41:13;98441.50;;;5.82;nan
77360;BME280;66426;51.454;7.266;2023-01-15T03:42:26;98444.28;;;5.65;nan
77360;BME280;66426;51.454;7.266;2023-01-15T03:43:39;98426.38;;;5.67;nan
77360;BME280;66426;51.454;7.266;2023-01-15T03:44:49;98430.22;;;5.77;nan
77360;BME280;66426;51.454;7.266;2023-01-15T03:45:53;98430.03;;;5.80;nan
77360;BME280;66426;51.454;7.266;2023-01-15T03:47:03;98432.19;;;5.74;nan
77360;BME280;66426;51.454;7.266;2023-01-15T03:48:15;98420.56;;;5.75;nan
77360;BME280;66426;51.454;7.266;2023-01-15T03:49:28;98423.38;;;5.88;nan
77360;BME280;66426;51.454;7.266;2023-01-15T03:50:39;98430.66;;;5.70;nan
77360;BME280;66426;51.454;7.266;2023-01-15T03:51:48;98425.22;;;5.71;nan
77360;BME280;66426;51.454;7.266;2023-01-15T03:52:57;98417.91;;;5.75;nan
77360;BME280;66426;51.454;7.266;2023-01-15T03:54:06;98424.19;;;5.74;nan
77360;BME280;66426;51.454;7.266;2023-01-15T03:55:14;98433.81;;;5.76;nan
77360;BME280;66426;51.454;7.266;2023-01-15T03:56:17;98428.66;;;5.73;nan
77360;BME280;66426;51.454;7.266;2023-01-15T03:57:27;98419.53;;;5.61;nan
77360;BME280;66426;51.454;7.266;2023-01-15T03:58:37;98437.97;;;5.66;nan
77360;BME280;66426;51.454;7.266;2023-01-15T03:59:44;98448.72;;;5.80;nan
77360;BME280;66426;51.454;7.266;2023-01-15T04:00:50;98442.94;;;5.88;nan
77360;BME280;66426;51.454;7.266;2023-01-15T04:01:52;98442.13;;;5.72;nan
77360;BME280;66426;51.454;7.266;2023-01-15T04:02:55;98437.19;;;5.80;nan
77360;BME280;66426;51.454;7.266;2023-01-15T04:03:58;98429.19;;;5.80;nan
77360;BME280;66426;51.454;7.266;2023-01-15T04:05:01;98435.38;;;5.80;nan
77360;BME280;66426;51.454;7.266;2023-01-15T04:06:03;98444.75;;;5.88;nan
77360;BME280;66426;51.454;7.266;2023-01-15T04:07:06;98443.84;;;5.73;nan
77360;BME280;66426;51.454;7.266;2023-01-15T04:08:07;98441.25;;;5.71;nan
77360;BME280;66426;51.454;7.266;2023-01-15T04:09:10;98445.09;;;5.81;nan
77360;BME280;66426;51.454;7.266;2023-01-15T04:10:12;98445.75;;;5.71;nan
77360;BME280;66426;51.454;7.266;2023-01-15T04:11:21;98446.31;;;5.76;nan
77360;BME280;66426;51.454;7.266;2023-01-15T04:12:23;98449.69;;;5.79;nan
77360;BME280;66426;51.454;7.266;2023-01-15T04:13:24;98445.78;;;5.85;nan
77360;BME280;66426;51.454;7.266;2023-01-15T04:14:25;98449.84;;;5.92;nan
77360;BME280;66426;51.454;7.266;2023-01-15T04:15:31;98445.59;;;5.88;nan
77360;BME280;66426;51.454;7.266;2023-01-15T04:16:32;98447.03;;;5.79;nan
77360;BME280;66426;51.454;7.266;2023-01-15T04:17:34;98442.63;;;5.78;nan
77360;BME280;66426;51.454;7.266;2023-01-15T04:18:35;98447.63;;;5.69;nan
77360;BME280;66426;51.454;7.266;2023-01-15T04:19:36;98446.31;;;5.76;nan
77360;BME280;66426;51.454;7.266;2023-01-15T04:20:37;98456.81;;;5.79;nan
77360;BME280;66426;51.454;7.266;2023-01-15T04:21:38;98451.78;;;5.74;nan
77360;BME280;66426;51.454;7.266;2023-01-15T04:22:39;98453.16;;;5.66;nan
77360;BME280;66426;51.454;7.266;2023-01-15T04:23:40;98452.03;;;5.70;nan
77360;BME280;66426;51.454;7.266;2023-01-15T04:24:42;98443.00;;;5.72;nan
77360;BME280;66426;51.454;7.266;2023-01-15T04:25:43;98434.59;;;5.78;nan
77360;BME280;66426;51.454;7.266;2023-01-15T04:26:44;98436.50;;;5.76;nan
77360;BME280;66426;51.454;7.266;2023-01-15T04:27:45;98438.69;;;5.70;nan
77360;BME280;66426;51.454;7.266;2023-01-15T04:28:46;98440.44;;;5.85;nan
77360;BME280;66426;51.454;7.266;2023-01-15T04:29:47;98444.75;;;5.88;nan
77360;BME280;66426;51.454;7.266;2023-01-15T04:30:50;98438.56;;;5.87;nan
77360;BME280;66426;51.454;7.266;2023-01-15T04:31:51;98435.97;;;5.86;nan
77360;BME280;66426;51.454;7.266;2023-01-15T04:32:57;98435.56;;;5.77;nan
77360;BME280;66426;51.454;7.266;2023-01-15T04:33:58;98439.75;;;5.81;nan
77360;BME280;66426;51.454;7.266;2023-01-15T04:34:59;98427.88;;;5.71;nan
77360;BME280;66426;51.454;7.266;2023-01-15T04:36:00;98437.47;;;5.75;nan
77360;BME280;66426;51.454;7.266;2023-01-15T04:37:02;98437.97;;;5.82;nan
77360;BME280;66426;51.454;7.266;2023-01-15T04:38:03;98444.25;;;5.81;nan
77360;BME280;66426;51.454;7.266;2023-01-15T04:39:05;98442.34;;;5.83;nan
77360;BME280;66426;51.454;7.266;2023-01-15T04:40:07;98438.91;;;5.81;nan
77360;BME280;66426;51.454;7.266;2023-01-15T04:41:09;98453.22;;;5.80;nan
77360;BME280;66426;51.454;7.266;2023-01-15T04:42:29;98452.38;;;5.79;nan
77360;BME280;66426;51.454;7.266;2023-01-15T04:43:48;98454.34;;;5.76;nan
77360;BME280;66426;51.454;7.266;2023-01-15T04:45:09;98450.91;;;5.74;nan
77360;BME280;66426;51.454;7.266;2023-01-15T04:46:11;98461.13;;;5.81;nan
77360;BME280;66426;51.454;7.266;2023-01-15T04:47:12;98456.41;;;5.87;nan
77360;BME280;66426;51.454;7.266;2023-01-15T04:48:13;98450.63;;;5.78;nan
77360;BME280;66426;51.454;7.266;2023-01-15T04:49:16;98453.41;;;5.77;nan
77360;BME280;66426;51.454;7.266;2023-01-15T04:50:18;98451.00;;;5.72;nan
77360;BME280;66426;51.454;7.266;2023-01-15T04:51:19;98448.72;;;5.80;nan
77360;BME280;66426;51.454;7.266;2023-01-15T04:52:20;98447.97;;;5.78;nan
77360;BME280;66426;51.454;7.266;2023-01-15T04:53:21;98446.50;;;5.73;nan
77360;BME280;66426;51.454;7.266;2023-01-15T04:54:22;98439.16;;;5.76;nan
77360;BME280;66426;51.454;7.266;2023-01-15T04:55:23;98445.88;;;5.83;nan
77360;BME280;66426;51.454;7.266;2023-01-15T04:56:24;98439.88;;;5.80;nan
77360;BME280;66426;51.454;7.266;2023-01-15T04:57:25;98433.75;;;5.78;nan
77360;BME280;66426;51.454;7.266;2023-01-15T04:58:26;98442.44;;;5.81;nan
77360;BME280;66426;51.454;7.266;2023-01-15T04:59:28;98436.34;;;5.79;nan
77360;BME280;66426;51.454;7.266;2023-01-15T05:00:29;98445.22;;;5.80;nan
77360;BME280;66426;51.454;7.266;2023-01-15T05:01:31;98429.25;;;5.78;nan
77360;BME280;66426;51.454;7.266;2023-01-15T05:02:32;98442.44;;;5.81;nan
77360;BME280;66426;51.454;7.266;2023-01-15T05:03:33;98447.78;;;5.81;nan
77360;BME280;66426;51.454;7.266;2023-01-15T05:04:34;98434.38;;;5.67;nan
77360;BME280;66426;51.454;7.266;2023-01-15T05:05:36;98446.59;;;5.71;nan
77360;BME280;66426;51.454;7.266;2023-01-15T05:06:37;98455.03;;;5.79;nan
77360;BME280;66426;51.454;7.266;2023-01-15T05:07:38;98447.09;;;5.78;nan
77360;BME280;66426;51.454;7.266;2023-01-15T05:08:39;98453.75;;;5.71;nan
77360;BME280;66426;51.454;7.266;2023-01-15T05:09:40;98443.25;;;5.68;nan
77360;BME280;66426;51.454;7.266;2023-01-15T05:10:41;98451.59;;;5.77;nan
77360;BME280;66426;51.454;7.266;2023-01-15T05:11:42;98447.88;;;5.80;nan
77360;BME280;66426;51.454;7.266;2023-01-15T05:12:43;98436.28;;;5.65;nan
77360;BME280;66426;51.454;7.266;2023-01-15T05:13:44;98443.91;;;5.71;nan
77360;BME280;66426;51.454;7.266;2023-01-15T05:14:45;98440.84;;;5.63;nan
77360;BME280;66426;51.454;7.266;2023-01-15T05:15:46;98452.31;;;5.65;nan
77360;BME280;66426;51.454;7.266;2023-01-15T05:16:49;98451.06;;;5.71;nan
77360;BME280;66426;51.454;7.266;2023-01-15T05:17:50;98455.13;;;5.78;nan
77360;BME280;66426;51.454;7.266;2023-01-15T05:18:53;98451.66;;;5.76;nan
77360;BME280;66426;51.454;7.266;2023-01-15T05:19:54;98446.44;;;5.58;nan
77360;BME280;66426;51.454;7.266;2023-01-15T05:20:55;98448.78;;;5.65;nan
77360;BME280;66426;51.454;7.266;2023-01-15T05:21:56;98444.03;;;5.70;nan
77360;BME280;66426;51.454;7.266;2023-01-15T05:22:57;98440.72;;;5.80;nan
77360;BME280;66426;51.454;7.266;2023-01-15T05:23:59;98449.59;;;5.81;nan
77360;BME280;66426;51.454;7.266;2023-01-15T05:25:00;98444.50;;;5.76;nan
77360;BME280;66426;51.454;7.266;2023-01-15T05:26:02;98446.00;;;5.66;nan
77360;BME280;66426;51.454;7.266;2023-01-15T05:27:04;98444.28;;;5.65;nan
77360;BME280;66426;51.454;7.266;2023-01-15T05:28:05;98453.75;;;5.71;nan
77360;BME280;66426;51.454;7.266;2023-01-15T05:29:06;98445.41;;;5.77;nan
77360;BME280;66426;51.454;7.266;2023-01-15T05:30:09;98451.47;;;5.79;nan
77360;BME280;66426;51.454;7.266;2023-01-15T05:31:11;98451.47;;;5.79;nan
77360;BME280;66426;51.454;7.266;2023-01-15T05:32:14;98448.06;;;5.77;nan
77360;BME280;66426;51.454;7.266;2023-01-15T05:33:15;98450.41;;;5.67;nan
77360;BME280;66426;51.454;7.266;2023-01-15T05:34:16;98453.69;;;5.72;nan
77360;BME280;66426;51.454;7.266;2023-01-15T05:35:17;98446.78;;;5.68;nan
77360;BME280;66426;51.454;7.266;2023-01-15T05:36:21;98445.47;;;5.75;nan
77360;BME280;66426;51.454;7.266;2023-01-15T05:37:22;98456.34;;;5.72;nan
77360;BME280;66426;51.454;7.266;2023-01-15T05:38:23;98443.91;;;5.71;nan
77360;BME280;66426;51.454;7.266;2023-01-15T05:39:24;98446.13;;;5.79;nan
77360;BME280;66426;51.454;7.266;2023-01-15T05:40:25;98455.03;;;5.79;nan
77360;BME280;66426;51.454;7.266;2023-01-15T05:41:27;98438.22;;;5.77;nan
77360;BME280;66426;51.454;7.266;2023-01-15T05:42:46;98448.59;;;5.68;nan
77360;BME280;66426;51.454;7.266;2023-01-15T05:43:48;98446.38;;;5.60;nan
77360;BME280;66426;51.454;7.266;2023-01-15T05:44:49;98448.22;;;5.74;nan
77360;BME280;66426;51.454;7.266;2023-01-15T05:45:50;98449.84;;;5.76;nan
77360;BME280;66426;51.454;7.266;2023-01-15T05:46:52;98448.91;;;5.77;nan
77360;BME280;66426;51.454;7.266;2023-01-15T05:47:56;98447.19;;;5.76;nan
77360;BME280;66426;51.454;7.266;2023-01-15T05:48:59;98450.50;;;5.66;nan
77360;BME280;66426;51.454;7.266;2023-01-15T05:50:00;98437.97;;;5.82;nan
77360;BME280;66426;51.454;7.266;2023-01-15T05:51:01;98444.44;;;5.78;nan
77360;BME280;66426;51.454;7.266;2023-01-15T05:52:03;98440.91;;;5.77;nan